sensor_id;sensor_type;location;lat;lon;timestamp;P1;durP1;ratioP1;P2;durP2;ratioP2
16284;SDS011;8250;52.426;9.450;2022-09-09T00:02:24;2.42;;;1.98;;
16284;SDS011;8250;52.426;9.450;2022-09-09T00:04:58;2.05;;;1.83;;
16284;SDS011;8250;52.426;9.450;2022-09-09T00:07:30;2.55;;;1.90;;
16284;SDS011;8250;52.426;9.450;2022-09-09T00:10:12;1.60;;;1.50;;
16284;SDS011;8250;52.426;9.450;2022-09-09T00:12:47;2.58;;;1.90;;
16284;SDS011;8250;52.426;9.450;2022-09-09T00:15:22;2.00;;;1.80;;
16284;SDS011;8250;52.426;9.450;2022-09-09T00:17:55;2.10;;;1.92;;
16284;SDS011;8250;52.426;9.450;2022-09-09T00:20:28;1.70;;;1.60;;
16284;SDS011;8250;52.426;9.450;2022-09-09T00:23:00;2.55;;;1.80;;
16284;SDS011;8250;52.426;9.450;2022-09-09T00:25:37;3.10;;;1.80;;
16284;SDS011;8250;52.426;9.450;2022-09-09T00:28:13;1.92;;;1.60;;
16284;SDS011;8250;52.426;9.450;2022-09-09T00:30:43;1.80;;;1.70;;
16284;SDS011;8250;52.426;9.450;2022-09-09T00:33:15;1.60;;;1.50;;
16284;SDS011;8250;52.426;9.450;2022-09-09T00:35:47;1.50;;;1.40;;
16284;SDS011;8250;52.426;9.450;2022-09-09T00:38:17;1.73;;;1.42;;
16284;SDS011;8250;52.426;9.450;2022-09-09T00:40:49;1.95;;;1.70;;
16284;SDS011;8250;52.426;9.450;2022-09-09T00:43:24;2.00;;;1.42;;
16284;SDS011;8250;52.426;9.450;2022-09-09T00:46:02;2.60;;;1.70;;
16284;SDS011;8250;52.426;9.450;2022-09-09T00:48:54;1.52;;;1.25;;
16284;SDS011;8250;52.426;9.450;2022-09-09T00:51:31;1.67;;;1.55;;
16284;SDS011;8250;52.426;9.450;2022-09-09T00:54:13;1.52;;;1.42;;
16284;SDS011;8250;52.426;9.450;2022-09-09T00:56:53;1.67;;;1.30;;
16284;SDS011;8250;52.426;9.450;2022-09-09T00:59:31;1.55;;;1.40;;
16284;SDS011;8250;52.426;9.450;2022-09-09T01:02:09;1.65;;;1.55;;
16284;SDS011;8250;52.426;9.450;2022-09-09T01:04:45;1.50;;;1.40;;
16284;SDS011;8250;52.426;9.450;2022-09-09T01:07:13;1.40;;;1.30;;
16284;SDS011;8250;52.426;9.450;2022-09-09T01:09:46;1.10;;;1.10;;
16284;SDS011;8250;52.426;9.450;2022-09-09T01:12:24;1.58;;;1.48;;
16284;SDS011;8250;52.426;9.450;2022-09-09T01:14:56;2.20;;;1.20;;
16284;SDS011;8250;52.426;9.450;2022-09-09T01:17:29;1.63;;;1.10;;
16284;SDS011;8250;52.426;9.450;2022-09-09T01:20:04;1.40;;;1.30;;
16284;SDS011;8250;52.426;9.450;2022-09-09T01:22:36;1.50;;;1.40;;
16284;SDS011;8250;52.426;9.450;2022-09-09T01:25:15;1.80;;;1.30;;
16284;SDS011;8250;52.426;9.450;2022-09-09T01:27:50;1.55;;;1.23;;
16284;SDS011;8250;52.426;9.450;2022-09-09T01:30:19;1.40;;;1.20;;
16284;SDS011;8250;52.426;9.450;2022-09-09T01:32:48;1.30;;;1.13;;
16284;SDS011;8250;52.426;9.450;2022-09-09T01:35:20;1.30;;;1.20;;
16284;SDS011;8250;52.426;9.450;2022-09-09T01:37:55;1.00;;;1.00;;
16284;SDS011;8250;52.426;9.450;2022-09-09T01:40:22;1.60;;;1.30;;
16284;SDS011;8250;52.426;9.450;2022-09-09T01:42:51;1.60;;;1.30;;
16284;SDS011;8250;52.426;9.450;2022-09-09T01:45:18;1.40;;;1.23;;
16284;SDS011;8250;52.426;9.450;2022-09-09T01:47:46;2.25;;;1.48;;
16284;SDS011;8250;52.426;9.450;2022-09-09T01:50:14;4.90;;;1.50;;
16284;SDS011;8250;52.426;9.450;2022-09-09T01:52:42;1.52;;;1.10;;
16284;SDS011;8250;52.426;9.450;2022-09-09T01:55:12;1.33;;;0.98;;
16284;SDS011;8250;52.426;9.450;2022-09-09T01:57:39;1.20;;;1.08;;
16284;SDS011;8250;52.426;9.450;2022-09-09T02:00:13;1.25;;;1.15;;
16284;SDS011;8250;52.426;9.450;2022-09-09T02:02:43;1.58;;;1.13;;
16284;SDS011;8250;52.426;9.450;2022-09-09T02:05:17;1.33;;;1.23;;
16284;SDS011;8250;52.426;9.450;2022-09-09T02:07:55;1.30;;;1.20;;
16284;SDS011;8250;52.426;9.450;2022-09-09T02:10:30;1.60;;;1.05;;
16284;SDS011;8250;52.426;9.450;2022-09-09T02:13:01;1.55;;;1.35;;
16284;SDS011;8250;52.426;9.450;2022-09-09T02:15:35;1.10;;;1.00;;
16284;SDS011;8250;52.426;9.450;2022-09-09T02:18:07;1.65;;;1.10;;
16284;SDS011;8250;52.426;9.450;2022-09-09T02:20:37;1.23;;;1.08;;
16284;SDS011;8250;52.426;9.450;2022-09-09T02:23:04;1.77;;;1.25;;
16284;SDS011;8250;52.426;9.450;2022-09-09T02:25:33;1.27;;;1.17;;
16284;SDS011;8250;52.426;9.450;2022-09-09T02:28:03;1.25;;;1.17;;
16284;SDS011;8250;52.426;9.450;2022-09-09T02:30:36;2.03;;;0.90;;
16284;SDS011;8250;52.426;9.450;2022-09-09T02:33:04;1.33;;;1.00;;
16284;SDS011;8250;52.426;9.450;2022-09-09T02:35:35;1.25;;;1.08;;
16284;SDS011;8250;52.426;9.450;2022-09-09T02:38:04;2.00;;;1.10;;
16284;SDS011;8250;52.426;9.450;2022-09-09T02:40:34;0.88;;;0.88;;
16284;SDS011;8250;52.426;9.450;2022-09-09T02:43:01;1.15;;;1.00;;
16284;SDS011;8250;52.426;9.450;2022-09-09T02:45:41;1.10;;;1.00;;
16284;SDS011;8250;52.426;9.450;2022-09-09T02:48:18;1.05;;;0.95;;
16284;SDS011;8250;52.426;9.450;2022-09-09T02:50:50;1.20;;;1.00;;
16284;SDS011;8250;52.426;9.450;2022-09-09T02:53:24;1.35;;;1.05;;
16284;SDS011;8250;52.426;9.450;2022-09-09T02:55:58;1.52;;;1.00;;
16284;SDS011;8250;52.426;9.450;2022-09-09T02:58:29;1.58;;;1.00;;
16284;SDS011;8250;52.426;9.450;2022-09-09T03:00:58;0.95;;;0.90;;
16284;SDS011;8250;52.426;9.450;2022-09-09T03:03:26;2.05;;;0.80;;
16284;SDS011;8250;52.426;9.450;2022-09-09T03:05:53;1.40;;;1.00;;
16284;SDS011;8250;52.426;9.450;2022-09-09T03:08:20;0.98;;;0.98;;
16284;SDS011;8250;52.426;9.450;2022-09-09T03:10:47;1.00;;;0.82;;
16284;SDS011;8250;52.426;9.450;2022-09-09T03:13:14;1.15;;;0.80;;
16284;SDS011;8250;52.426;9.450;2022-09-09T03:15:41;1.05;;;0.95;;
16284;SDS011;8250;52.426;9.450;2022-09-09T03:18:09;1.05;;;0.98;;
16284;SDS011;8250;52.426;9.450;2022-09-09T03:20:36;1.00;;;0.90;;
16284;SDS011;8250;52.426;9.450;2022-09-09T03:23:03;1.10;;;0.95;;
16284;SDS011;8250;52.426;9.450;2022-09-09T03:25:29;1.92;;;1.10;;
16284;SDS011;8250;52.426;9.450;2022-09-09T03:27:57;1.33;;;0.80;;
16284;SDS011;8250;52.426;9.450;2022-09-09T03:30:24;0.90;;;0.90;;
16284;SDS011;8250;52.426;9.450;2022-09-09T03:32:52;1.05;;;0.88;;
16284;SDS011;8250;52.426;9.450;2022-09-09T03:35:21;1.83;;;1.10;;
16284;SDS011;8250;52.426;9.450;2022-09-09T03:37:48;2.13;;;1.10;;
16284;SDS011;8250;52.426;9.450;2022-09-09T03:40:15;1.63;;;1.17;;
16284;SDS011;8250;52.426;9.450;2022-09-09T03:42:43;1.30;;;1.05;;
16284;SDS011;8250;52.426;9.450;2022-09-09T03:45:10;2.50;;;1.20;;
16284;SDS011;8250;52.426;9.450;2022-09-09T03:47:37;1.80;;;0.90;;
16284;SDS011;8250;52.426;9.450;2022-09-09T03:50:04;0.88;;;0.88;;
16284;SDS011;8250;52.426;9.450;2022-09-09T03:52:35;2.70;;;1.15;;
16284;SDS011;8250;52.426;9.450;2022-09-09T03:55:02;1.20;;;1.10;;
16284;SDS011;8250;52.426;9.450;2022-09-09T03:57:30;1.17;;;1.08;;
16284;SDS011;8250;52.426;9.450;2022-09-09T03:59:59;1.33;;;1.05;;
16284;SDS011;8250;52.426;9.450;2022-09-09T04:02:27;1.25;;;1.00;;
16284;SDS011;8250;52.426;9.450;2022-09-09T04:04:54;1.30;;;1.17;;
16284;SDS011;8250;52.426;9.450;2022-09-09T04:07:21;1.17;;;0.90;;
16284;SDS011;8250;52.426;9.450;2022-09-09T04:09:49;2.65;;;1.23;;
16284;SDS011;8250;52.426;9.450;2022-09-09T04:12:16;1.73;;;1.42;;
16284;SDS011;8250;52.426;9.450;2022-09-09T04:14:43;1.42;;;1.30;;
16284;SDS011;8250;52.426;9.450;2022-09-09T04:17:09;1.83;;;1.60;;
16284;SDS011;8250;52.426;9.450;2022-09-09T04:19:36;1.73;;;1.35;;
16284;SDS011;8250;52.426;9.450;2022-09-09T04:22:03;1.73;;;1.27;;
16284;SDS011;8250;52.426;9.450;2022-09-09T04:24:30;2.47;;;1.33;;
16284;SDS011;8250;52.426;9.450;2022-09-09T04:26:58;1.13;;;1.10;;
16284;SDS011;8250;52.426;9.450;2022-09-09T04:29:25;1.42;;;1.20;;
16284;SDS011;8250;52.426;9.450;2022-09-09T04:31:52;1.40;;;1.30;;
16284;SDS011;8250;52.426;9.450;2022-09-09T04:34:19;1.40;;;1.30;;
16284;SDS011;8250;52.426;9.450;2022-09-09T04:36:46;1.65;;;1.20;;
16284;SDS011;8250;52.426;9.450;2022-09-09T04:39:13;1.60;;;1.13;;
16284;SDS011;8250;52.426;9.450;2022-09-09T04:41:40;1.30;;;1.20;;
16284;SDS011;8250;52.426;9.450;2022-09-09T04:44:08;1.65;;;1.48;;
16284;SDS011;8250;52.426;9.450;2022-09-09T04:46:35;1.20;;;1.10;;
16284;SDS011;8250;52.426;9.450;2022-09-09T04:49:02;1.50;;;1.38;;
16284;SDS011;8250;52.426;9.450;2022-09-09T04:51:29;1.40;;;1.30;;
16284;SDS011;8250;52.426;9.450;2022-09-09T04:53:56;3.17;;;1.60;;
16284;SDS011;8250;52.426;9.450;2022-09-09T04:56:23;1.73;;;1.45;;
16284;SDS011;8250;52.426;9.450;2022-09-09T04:58:54;2.88;;;1.50;;
16284;SDS011;8250;52.426;9.450;2022-09-09T05:01:23;1.95;;;1.20;;
16284;SDS011;8250;52.426;9.450;2022-09-09T05:03:50;1.30;;;1.20;;
16284;SDS011;8250;52.426;9.450;2022-09-09T05:06:18;2.08;;;1.48;;
16284;SDS011;8250;52.426;9.450;2022-09-09T05:08:46;1.63;;;1.30;;
16284;SDS011;8250;52.426;9.450;2022-09-09T05:11:18;1.33;;;1.23;;
16284;SDS011;8250;52.426;9.450;2022-09-09T05:13:47;2.22;;;1.30;;
16284;SDS011;8250;52.426;9.450;2022-09-09T05:16:15;1.38;;;1.27;;
16284;SDS011;8250;52.426;9.450;2022-09-09T05:18:43;1.40;;;1.30;;
16284;SDS011;8250;52.426;9.450;2022-09-09T05:21:12;1.70;;;1.40;;
16284;SDS011;8250;52.426;9.450;2022-09-09T05:23:40;1.85;;;1.50;;
16284;SDS011;8250;52.426;9.450;2022-09-09T05:26:09;2.05;;;1.08;;
16284;SDS011;8250;52.426;9.450;2022-09-09T05:28:38;1.90;;;1.27;;
16284;SDS011;8250;52.426;9.450;2022-09-09T05:31:06;1.80;;;1.20;;
16284;SDS011;8250;52.426;9.450;2022-09-09T05:33:34;1.83;;;1.33;;
16284;SDS011;8250;52.426;9.450;2022-09-09T05:36:04;2.03;;;1.20;;
16284;SDS011;8250;52.426;9.450;2022-09-09T05:38:33;2.28;;;1.38;;
16284;SDS011;8250;52.426;9.450;2022-09-09T05:41:01;1.45;;;1.20;;
16284;SDS011;8250;52.426;9.450;2022-09-09T05:43:29;1.60;;;1.38;;
16284;SDS011;8250;52.426;9.450;2022-09-09T05:46:01;2.22;;;1.33;;
16284;SDS011;8250;52.426;9.450;2022-09-09T05:48:30;1.33;;;1.10;;
16284;SDS011;8250;52.426;9.450;2022-09-09T05:50:59;2.25;;;1.60;;
16284;SDS011;8250;52.426;9.450;2022-09-09T05:53:29;2.03;;;1.58;;
16284;SDS011;8250;52.426;9.450;2022-09-09T05:56:00;1.48;;;1.30;;
16284;SDS011;8250;52.426;9.450;2022-09-09T05:58:29;1.73;;;1.40;;
16284;SDS011;8250;52.426;9.450;2022-09-09T06:01:00;1.80;;;1.30;;
16284;SDS011;8250;52.426;9.450;2022-09-09T06:03:28;1.70;;;1.23;;
16284;SDS011;8250;52.426;9.450;2022-09-09T06:05:58;1.30;;;1.20;;
16284;SDS011;8250;52.426;9.450;2022-09-09T06:08:25;2.40;;;1.23;;
16284;SDS011;8250;52.426;9.450;2022-09-09T06:11:00;4.80;;;1.50;;
16284;SDS011;8250;52.426;9.450;2022-09-09T06:13:28;4.68;;;1.48;;
16284;SDS011;8250;52.426;9.450;2022-09-09T06:15:56;2.70;;;1.52;;
16284;SDS011;8250;52.426;9.450;2022-09-09T06:18:23;2.25;;;1.40;;
16284;SDS011;8250;52.426;9.450;2022-09-09T06:20:54;1.50;;;1.10;;
16284;SDS011;8250;52.426;9.450;2022-09-09T06:23:25;2.53;;;1.40;;
16284;SDS011;8250;52.426;9.450;2022-09-09T06:26:01;1.15;;;1.02;;
16284;SDS011;8250;52.426;9.450;2022-09-09T06:28:30;1.33;;;1.20;;
16284;SDS011;8250;52.426;9.450;2022-09-09T06:30:58;2.15;;;1.23;;
16284;SDS011;8250;52.426;9.450;2022-09-09T06:33:25;2.47;;;1.15;;
16284;SDS011;8250;52.426;9.450;2022-09-09T06:35:53;1.73;;;1.20;;
16284;SDS011;8250;52.426;9.450;2022-09-09T06:38:22;1.50;;;1.15;;
16284;SDS011;8250;52.426;9.450;2022-09-09T06:40:52;1.35;;;1.10;;
16284;SDS011;8250;52.426;9.450;2022-09-09T06:43:22;1.70;;;1.25;;
16284;SDS011;8250;52.426;9.450;2022-09-09T06:45:55;1.52;;;1.30;;
16284;SDS011;8250;52.426;9.450;2022-09-09T06:48:22;1.40;;;1.13;;
16284;SDS011;8250;52.426;9.450;2022-09-09T06:50:51;2.85;;;1.35;;
16284;SDS011;8250;52.426;9.450;2022-09-09T06:53:25;1.42;;;1.15;;
16284;SDS011;8250;52.426;9.450;2022-09-09T06:55:52;3.45;;;1.38;;
16284;SDS011;8250;52.426;9.450;2022-09-09T06:58:19;1.65;;;1.27;;
16284;SDS011;8250;52.426;9.450;2022-09-09T07:00:48;2.03;;;1.30;;
16284;SDS011;8250;52.426;9.450;2022-09-09T07:03:15;1.00;;;0.90;;
16284;SDS011;8250;52.426;9.450;2022-09-09T07:05:42;4.25;;;1.27;;
16284;SDS011;8250;52.426;9.450;2022-09-09T07:08:10;3.25;;;1.85;;
16284;SDS011;8250;52.426;9.450;2022-09-09T07:10:37;3.42;;;1.50;;
16284;SDS011;8250;52.426;9.450;2022-09-09T07:13:04;3.00;;;1.40;;
16284;SDS011;8250;52.426;9.450;2022-09-09T07:15:32;1.58;;;1.20;;
16284;SDS011;8250;52.426;9.450;2022-09-09T07:18:00;1.40;;;1.20;;
16284;SDS011;8250;52.426;9.450;2022-09-09T07:20:27;4.25;;;1.30;;
16284;SDS011;8250;52.426;9.450;2022-09-09T07:22:54;1.65;;;1.50;;
16284;SDS011;8250;52.426;9.450;2022-09-09T07:25:23;1.80;;;1.27;;
16284;SDS011;8250;52.426;9.450;2022-09-09T07:27:56;1.75;;;1.35;;
16284;SDS011;8250;52.426;9.450;2022-09-09T07:30:23;1.73;;;1.58;;
16284;SDS011;8250;52.426;9.450;2022-09-09T07:32:52;2.90;;;1.35;;
16284;SDS011;8250;52.426;9.450;2022-09-09T07:35:20;2.88;;;1.42;;
16284;SDS011;8250;52.426;9.450;2022-09-09T07:37:47;2.38;;;1.27;;
16284;SDS011;8250;52.426;9.450;2022-09-09T07:40:14;1.85;;;1.50;;
16284;SDS011;8250;52.426;9.450;2022-09-09T07:42:41;2.75;;;1.25;;
16284;SDS011;8250;52.426;9.450;2022-09-09T07:45:08;2.40;;;1.27;;
16284;SDS011;8250;52.426;9.450;2022-09-09T07:47:34;1.92;;;1.60;;
16284;SDS011;8250;52.426;9.450;2022-09-09T07:50:03;3.08;;;1.33;;
16284;SDS011;8250;52.426;9.450;2022-09-09T07:52:30;3.47;;;1.60;;
16284;SDS011;8250;52.426;9.450;2022-09-09T07:54:57;1.52;;;1.20;;
16284;SDS011;8250;52.426;9.450;2022-09-09T07:57:25;4.32;;;1.33;;
16284;SDS011;8250;52.426;9.450;2022-09-09T07:59:52;2.13;;;1.20;;
16284;SDS011;8250;52.426;9.450;2022-09-09T08:02:19;2.60;;;1.10;;
16284;SDS011;8250;52.426;9.450;2022-09-09T08:04:46;1.70;;;1.30;;
16284;SDS011;8250;52.426;9.450;2022-09-09T08:07:14;4.00;;;1.70;;
16284;SDS011;8250;52.426;9.450;2022-09-09T08:09:42;1.77;;;1.10;;
16284;SDS011;8250;52.426;9.450;2022-09-09T08:12:09;1.27;;;1.00;;
16284;SDS011;8250;52.426;9.450;2022-09-09T08:14:38;2.55;;;1.20;;
16284;SDS011;8250;52.426;9.450;2022-09-09T08:17:05;2.03;;;1.15;;
16284;SDS011;8250;52.426;9.450;2022-09-09T08:19:32;2.08;;;1.00;;
16284;SDS011;8250;52.426;9.450;2022-09-09T08:22:02;1.13;;;1.02;;
16284;SDS011;8250;52.426;9.450;2022-09-09T08:24:30;2.47;;;1.00;;
16284;SDS011;8250;52.426;9.450;2022-09-09T08:26:57;2.03;;;1.10;;
16284;SDS011;8250;52.426;9.450;2022-09-09T08:29:24;1.67;;;1.00;;
16284;SDS011;8250;52.426;9.450;2022-09-09T08:31:53;1.48;;;0.98;;
16284;SDS011;8250;52.426;9.450;2022-09-09T08:34:22;1.42;;;0.93;;
16284;SDS011;8250;52.426;9.450;2022-09-09T08:36:50;3.10;;;1.00;;
16284;SDS011;8250;52.426;9.450;2022-09-09T08:39:17;1.67;;;1.15;;
16284;SDS011;8250;52.426;9.450;2022-09-09T08:44:48;1.05;;;0.95;;
16284;SDS011;8250;52.426;9.450;2022-09-09T08:47:27;2.33;;;0.98;;
16284;SDS011;8250;52.426;9.450;2022-09-09T08:50:03;1.98;;;0.90;;
16284;SDS011;8250;52.426;9.450;2022-09-09T08:52:40;1.42;;;0.90;;
16284;SDS011;8250;52.426;9.450;2022-09-09T08:55:16;1.25;;;1.15;;
16284;SDS011;8250;52.426;9.450;2022-09-09T08:57:49;2.28;;;1.55;;
16284;SDS011;8250;52.426;9.450;2022-09-09T09:00:19;2.17;;;1.10;;
16284;SDS011;8250;52.426;9.450;2022-09-09T09:02:48;1.10;;;1.00;;
16284;SDS011;8250;52.426;9.450;2022-09-09T09:05:25;0.88;;;0.70;;
16284;SDS011;8250;52.426;9.450;2022-09-09T09:07:59;2.13;;;1.10;;
16284;SDS011;8250;52.426;9.450;2022-09-09T09:10:41;2.00;;;1.00;;
16284;SDS011;8250;52.426;9.450;2022-09-09T09:13:18;1.05;;;0.98;;
16284;SDS011;8250;52.426;9.450;2022-09-09T09:15:48;2.20;;;1.00;;
16284;SDS011;8250;52.426;9.450;2022-09-09T09:18:20;2.20;;;1.10;;
16284;SDS011;8250;52.426;9.450;2022-09-09T09:20:50;1.95;;;1.00;;
16284;SDS011;8250;52.426;9.450;2022-09-09T09:23:22;1.05;;;0.80;;
16284;SDS011;8250;52.426;9.450;2022-09-09T09:25:50;1.40;;;1.05;;
16284;SDS011;8250;52.426;9.450;2022-09-09T09:28:24;1.98;;;1.30;;
16284;SDS011;8250;52.426;9.450;2022-09-09T09:30:53;3.00;;;1.45;;
16284;SDS011;8250;52.426;9.450;2022-09-09T09:33:24;1.98;;;1.00;;
16284;SDS011;8250;52.426;9.450;2022-09-09T09:35:56;1.30;;;1.10;;
16284;SDS011;8250;52.426;9.450;2022-09-09T09:38:26;1.58;;;1.10;;
16284;SDS011;8250;52.426;9.450;2022-09-09T09:40:54;2.05;;;1.20;;
16284;SDS011;8250;52.426;9.450;2022-09-09T09:43:26;2.75;;;1.13;;
16284;SDS011;8250;52.426;9.450;2022-09-09T09:45:54;2.35;;;1.10;;
16284;SDS011;8250;52.426;9.450;2022-09-09T09:48:23;2.55;;;1.42;;
16284;SDS011;8250;52.426;9.450;2022-09-09T09:50:51;1.92;;;1.10;;
16284;SDS011;8250;52.426;9.450;2022-09-09T09:53:21;2.75;;;1.50;;
16284;SDS011;8250;52.426;9.450;2022-09-09T09:55:53;3.83;;;1.20;;
16284;SDS011;8250;52.426;9.450;2022-09-09T09:58:22;1.30;;;1.05;;
16284;SDS011;8250;52.426;9.450;2022-09-09T10:00:52;3.42;;;1.30;;
16284;SDS011;8250;52.426;9.450;2022-09-09T10:03:21;2.88;;;1.55;;
16284;SDS011;8250;52.426;9.450;2022-09-09T10:05:50;4.15;;;1.33;;
16284;SDS011;8250;52.426;9.450;2022-09-09T10:08:17;4.10;;;1.00;;
16284;SDS011;8250;52.426;9.450;2022-09-09T10:10:50;4.65;;;1.08;;
16284;SDS011;8250;52.426;9.450;2022-09-09T10:13:34;1.48;;;1.20;;
16284;SDS011;8250;52.426;9.450;2022-09-09T10:16:13;1.40;;;1.08;;
16284;SDS011;8250;52.426;9.450;2022-09-09T10:18:54;4.15;;;1.05;;
16284;SDS011;8250;52.426;9.450;2022-09-09T10:21:30;2.25;;;1.08;;
16284;SDS011;8250;52.426;9.450;2022-09-09T10:24:21;2.05;;;1.33;;
16284;SDS011;8250;52.426;9.450;2022-09-09T10:27:01;3.92;;;1.52;;
16284;SDS011;8250;52.426;9.450;2022-09-09T10:29:45;4.00;;;1.60;;
16284;SDS011;8250;52.426;9.450;2022-09-09T10:32:30;1.98;;;1.23;;
16284;SDS011;8250;52.426;9.450;2022-09-09T10:35:04;3.80;;;1.30;;
16284;SDS011;8250;52.426;9.450;2022-09-09T10:37:41;2.30;;;1.60;;
16284;SDS011;8250;52.426;9.450;2022-09-09T10:40:19;3.60;;;1.45;;
16284;SDS011;8250;52.426;9.450;2022-09-09T10:42:52;3.05;;;1.63;;
16284;SDS011;8250;52.426;9.450;2022-09-09T10:45:27;3.13;;;1.52;;
16284;SDS011;8250;52.426;9.450;2022-09-09T10:48:12;2.47;;;1.55;;
16284;SDS011;8250;52.426;9.450;2022-09-09T10:50:53;3.03;;;1.35;;
16284;SDS011;8250;52.426;9.450;2022-09-09T10:53:27;2.38;;;1.17;;
16284;SDS011;8250;52.426;9.450;2022-09-09T10:56:04;2.88;;;1.63;;
16284;SDS011;8250;52.426;9.450;2022-09-09T10:58:35;5.65;;;1.17;;
16284;SDS011;8250;52.426;9.450;2022-09-09T11:01:12;2.90;;;0.98;;
16284;SDS011;8250;52.426;9.450;2022-09-09T11:03:45;1.95;;;1.00;;
16284;SDS011;8250;52.426;9.450;2022-09-09T11:06:19;0.98;;;0.75;;
16284;SDS011;8250;52.426;9.450;2022-09-09T11:08:50;1.98;;;0.90;;
16284;SDS011;8250;52.426;9.450;2022-09-09T11:11:20;3.25;;;1.02;;
16284;SDS011;8250;52.426;9.450;2022-09-09T11:13:53;1.13;;;0.90;;
16284;SDS011;8250;52.426;9.450;2022-09-09T11:16:27;1.50;;;0.80;;
16284;SDS011;8250;52.426;9.450;2022-09-09T11:18:58;3.38;;;1.05;;
16284;SDS011;8250;52.426;9.450;2022-09-09T11:21:29;1.73;;;1.05;;
16284;SDS011;8250;52.426;9.450;2022-09-09T11:24:02;2.60;;;1.30;;
16284;SDS011;8250;52.426;9.450;2022-09-09T11:26:36;3.22;;;0.90;;
16284;SDS011;8250;52.426;9.450;2022-09-09T11:29:13;3.40;;;1.02;;
16284;SDS011;8250;52.426;9.450;2022-09-09T11:31:57;1.90;;;1.17;;
16284;SDS011;8250;52.426;9.450;2022-09-09T11:34:37;1.08;;;0.80;;
16284;SDS011;8250;52.426;9.450;2022-09-09T11:37:23;1.77;;;0.90;;
16284;SDS011;8250;52.426;9.450;2022-09-09T11:40:14;2.28;;;0.77;;
16284;SDS011;8250;52.426;9.450;2022-09-09T11:42:45;2.47;;;1.20;;
16284;SDS011;8250;52.426;9.450;2022-09-09T11:45:22;3.60;;;1.45;;
16284;SDS011;8250;52.426;9.450;2022-09-09T11:47:55;1.65;;;0.80;;
16284;SDS011;8250;52.426;9.450;2022-09-09T11:50:29;1.83;;;0.80;;
16284;SDS011;8250;52.426;9.450;2022-09-09T11:55:59;1.55;;;0.93;;
16284;SDS011;8250;52.426;9.450;2022-09-09T11:58:36;1.77;;;1.17;;
16284;SDS011;8250;52.426;9.450;2022-09-09T12:01:15;0.98;;;0.77;;
16284;SDS011;8250;52.426;9.450;2022-09-09T12:03:59;1.80;;;0.75;;
16284;SDS011;8250;52.426;9.450;2022-09-09T12:06:33;1.50;;;0.80;;
16284;SDS011;8250;52.426;9.450;2022-09-09T12:09:17;0.73;;;0.70;;
16284;SDS011;8250;52.426;9.450;2022-09-09T12:11:49;1.70;;;0.90;;
16284;SDS011;8250;52.426;9.450;2022-09-09T12:14:20;1.95;;;0.80;;
16284;SDS011;8250;52.426;9.450;2022-09-09T12:16:48;0.98;;;0.73;;
16284;SDS011;8250;52.426;9.450;2022-09-09T12:19:18;0.85;;;0.80;;
16284;SDS011;8250;52.426;9.450;2022-09-09T12:21:49;0.95;;;0.70;;
16284;SDS011;8250;52.426;9.450;2022-09-09T12:24:22;5.55;;;1.45;;
16284;SDS011;8250;52.426;9.450;2022-09-09T12:26:56;0.95;;;0.88;;
16284;SDS011;8250;52.426;9.450;2022-09-09T12:29:30;1.10;;;0.70;;
16284;SDS011;8250;52.426;9.450;2022-09-09T12:32:08;0.70;;;0.70;;
16284;SDS011;8250;52.426;9.450;2022-09-09T12:34:40;1.73;;;0.75;;
16284;SDS011;8250;52.426;9.450;2022-09-09T12:37:13;4.43;;;1.30;;
16284;SDS011;8250;52.426;9.450;2022-09-09T12:39:45;7.10;;;1.17;;
16284;SDS011;8250;52.426;9.450;2022-09-09T12:42:16;2.40;;;0.80;;
16284;SDS011;8250;52.426;9.450;2022-09-09T12:44:50;1.08;;;0.95;;
16284;SDS011;8250;52.426;9.450;2022-09-09T12:47:22;2.28;;;1.23;;
16284;SDS011;8250;52.426;9.450;2022-09-09T12:49:54;2.72;;;0.80;;
16284;SDS011;8250;52.426;9.450;2022-09-09T12:52:23;2.15;;;0.98;;
16284;SDS011;8250;52.426;9.450;2022-09-09T12:54:55;1.55;;;0.75;;
16284;SDS011;8250;52.426;9.450;2022-09-09T12:57:23;1.35;;;0.70;;
16284;SDS011;8250;52.426;9.450;2022-09-09T12:59:52;1.25;;;0.80;;
16284;SDS011;8250;52.426;9.450;2022-09-09T13:02:30;1.50;;;0.90;;
16284;SDS011;8250;52.426;9.450;2022-09-09T13:05:08;1.77;;;0.90;;
16284;SDS011;8250;52.426;9.450;2022-09-09T13:07:42;1.55;;;0.80;;
16284;SDS011;8250;52.426;9.450;2022-09-09T13:10:11;1.80;;;1.05;;
16284;SDS011;8250;52.426;9.450;2022-09-09T13:12:38;3.42;;;0.70;;
16284;SDS011;8250;52.426;9.450;2022-09-09T13:15:10;2.63;;;1.02;;
16284;SDS011;8250;52.426;9.450;2022-09-09T13:17:48;2.20;;;1.05;;
16284;SDS011;8250;52.426;9.450;2022-09-09T13:20:19;2.22;;;0.90;;
16284;SDS011;8250;52.426;9.450;2022-09-09T13:22:47;1.98;;;0.90;;
16284;SDS011;8250;52.426;9.450;2022-09-09T13:25:19;2.05;;;0.90;;
16284;SDS011;8250;52.426;9.450;2022-09-09T13:27:59;1.73;;;0.90;;
16284;SDS011;8250;52.426;9.450;2022-09-09T13:30:29;1.75;;;0.80;;
16284;SDS011;8250;52.426;9.450;2022-09-09T13:33:21;1.77;;;0.80;;
16284;SDS011;8250;52.426;9.450;2022-09-09T13:35:50;3.05;;;1.50;;
16284;SDS011;8250;52.426;9.450;2022-09-09T13:38:20;1.67;;;1.10;;
16284;SDS011;8250;52.426;9.450;2022-09-09T13:40:54;2.55;;;0.82;;
16284;SDS011;8250;52.426;9.450;2022-09-09T13:43:27;2.03;;;1.23;;
16284;SDS011;8250;52.426;9.450;2022-09-09T13:45:56;2.13;;;0.88;;
16284;SDS011;8250;52.426;9.450;2022-09-09T13:48:25;7.47;;;1.20;;
16284;SDS011;8250;52.426;9.450;2022-09-09T13:50:57;2.40;;;1.00;;
16284;SDS011;8250;52.426;9.450;2022-09-09T13:53:30;2.72;;;0.90;;
16284;SDS011;8250;52.426;9.450;2022-09-09T13:55:57;1.70;;;0.90;;
16284;SDS011;8250;52.426;9.450;2022-09-09T13:58:24;2.65;;;1.20;;
16284;SDS011;8250;52.426;9.450;2022-09-09T14:00:52;1.95;;;1.10;;
16284;SDS011;8250;52.426;9.450;2022-09-09T14:03:19;1.92;;;1.13;;
16284;SDS011;8250;52.426;9.450;2022-09-09T14:05:47;1.65;;;0.98;;
16284;SDS011;8250;52.426;9.450;2022-09-09T14:08:19;1.08;;;0.80;;
16284;SDS011;8250;52.426;9.450;2022-09-09T14:10:48;3.78;;;1.10;;
16284;SDS011;8250;52.426;9.450;2022-09-09T14:13:15;1.77;;;0.90;;
16284;SDS011;8250;52.426;9.450;2022-09-09T14:15:42;1.83;;;0.80;;
16284;SDS011;8250;52.426;9.450;2022-09-09T14:18:09;1.73;;;0.70;;
16284;SDS011;8250;52.426;9.450;2022-09-09T14:20:39;2.05;;;0.85;;
16284;SDS011;8250;52.426;9.450;2022-09-09T14:23:08;2.50;;;1.13;;
16284;SDS011;8250;52.426;9.450;2022-09-09T14:25:40;2.28;;;0.90;;
16284;SDS011;8250;52.426;9.450;2022-09-09T14:28:08;1.55;;;0.95;;
16284;SDS011;8250;52.426;9.450;2022-09-09T14:30:37;2.47;;;0.90;;
16284;SDS011;8250;52.426;9.450;2022-09-09T14:33:05;0.60;;;0.60;;
16284;SDS011;8250;52.426;9.450;2022-09-09T14:35:32;2.95;;;0.82;;
16284;SDS011;8250;52.426;9.450;2022-09-09T14:37:59;1.40;;;0.80;;
16284;SDS011;8250;52.426;9.450;2022-09-09T14:40:27;0.77;;;0.77;;
16284;SDS011;8250;52.426;9.450;2022-09-09T14:42:56;1.67;;;1.02;;
16284;SDS011;8250;52.426;9.450;2022-09-09T14:45:23;1.02;;;0.80;;
16284;SDS011;8250;52.426;9.450;2022-09-09T14:47:51;1.17;;;0.70;;
16284;SDS011;8250;52.426;9.450;2022-09-09T14:50:18;1.50;;;0.80;;
16284;SDS011;8250;52.426;9.450;2022-09-09T14:52:46;1.90;;;0.80;;
16284;SDS011;8250;52.426;9.450;2022-09-09T14:55:13;1.35;;;0.70;;
16284;SDS011;8250;52.426;9.450;2022-09-09T14:57:40;2.90;;;1.00;;
16284;SDS011;8250;52.426;9.450;2022-09-09T15:00:09;1.52;;;0.80;;
16284;SDS011;8250;52.426;9.450;2022-09-09T15:02:37;1.05;;;0.70;;
16284;SDS011;8250;52.426;9.450;2022-09-09T15:05:04;1.83;;;0.70;;
16284;SDS011;8250;52.426;9.450;2022-09-09T15:07:32;1.42;;;0.90;;
16284;SDS011;8250;52.426;9.450;2022-09-09T15:09:59;4.93;;;1.30;;
16284;SDS011;8250;52.426;9.450;2022-09-09T15:12:26;1.00;;;0.90;;
16284;SDS011;8250;52.426;9.450;2022-09-09T15:14:53;2.58;;;1.58;;
16284;SDS011;8250;52.426;9.450;2022-09-09T15:17:22;2.70;;;1.00;;
16284;SDS011;8250;52.426;9.450;2022-09-09T15:19:52;2.42;;;1.10;;
16284;SDS011;8250;52.426;9.450;2022-09-09T15:22:20;3.78;;;0.90;;
16284;SDS011;8250;52.426;9.450;2022-09-09T15:24:47;3.45;;;1.13;;
16284;SDS011;8250;52.426;9.450;2022-09-09T15:27:14;2.28;;;1.45;;
16284;SDS011;8250;52.426;9.450;2022-09-09T15:29:41;1.65;;;1.00;;